Airfield :







YOU CAN JOIN US ON...

 
LOGIN :

Register | Disclaimer

   EN    FR    IT 

 









Legend :    VFR   Marginal VFR   IFR   Intensive IFR   Very Intensive IFR
Visi :
Ceiling :
>= 8 km
>= 3000ft
5 to 8 km
1000 to 3000 ft
1500m to 5 km
500 to 1000 ft
800 to 1500m
200 to 500 ft
< 800m
< 200 ft
Symbols :   Thunderstorms  Fog  Heavy snow  Heavy precipitations  Wind > 20 kt






- Airport Elevation : 477 ft
- IATA code : YHZ


CYHZ - Halifax Stanfield Int.

CURRENT METAR :
  • 012000Z 04012KT 15SM FEW018 BKN100 BKN260 08/04 A2969 RMK SC2AC3CI2 SLP059

EXPIRED METARs :
  • 011900Z 36010KT 15SM SCT016 BKN080 BKN120 08/04 A2971 RMK SC3AS2AC2 SLP067
  • 011817Z 03012KT 15SM SCT017 OVC070 07/04 A2973 RMK SC4AS4 SLP074
  • 011800Z CCB 03012KT 15SM OVC014 06/04 A2973 RMK SC8 SLP076

TAF TAF CYHZ
Valid from the 01 at 18:00 until the 02 at 18:00 UTC


011739Z 0118/0218 01010KT 5SM -RA -DZ BR OVC012
TEMPO 0118/0120 P6SM NSW SCT012 OVC025
FM012000 03012KT P6SM SCT008 OVC012
TEMPO 0120/0122 5SM -DZ -RA BR OVC008
FM012200 04012KT 1SM -DZ -RA BR OVC004
PROB40 0122/0124 OVC003
FM020000 07012KT 3/4SM -DZ -RA BR OVC003
BECMG 0204/0206 08012G22KT
FM021200 08018G28KT 1SM -RA -DZ BR OVC004
PROB40 0212/0216 3/4SM -DZ BR OVC003
FM021600 08020G35KT 1SM -RA -DZ BR OVC004
PROB40 0216/0218 3/4SM -DZ BR OVC003 RMK NXT FCST BY 012100Z



MET'MAP, your aeronautical weather chart ! - Copyright ORBIFLY December 2007 - Disclaimer

ORBIFLY MET'MAP TEAM :

Programming & Development : Alexandra Zaïnal
Concept & original design : Baudouin d'Aumeries
Assistance for programming : Marc-Olivier Méhu
Technical & hardware support : Manuel Goepfert

Contact : metmap@orbifly.com




SOURCES & CREDITS :

   NOAA